createdAt,value
2018-01-08T00:03:30.745Z,73.03
2018-01-08T00:08:32.059Z,72.96
2018-01-08T00:13:33.395Z,72.41
2018-01-08T00:18:34.743Z,72.60
2018-01-08T00:23:36.073Z,72.53
2018-01-08T00:28:38.113Z,73.48
2018-01-08T00:33:39.552Z,73.54
2018-01-08T00:38:40.865Z,73.89
2018-01-08T00:43:42.172Z,73.88
2018-01-08T00:48:43.497Z,73.48
2018-01-08T00:53:44.809Z,74.00
2018-01-08T00:58:46.219Z,73.67
2018-01-08T01:03:48.304Z,73.57
2018-01-08T01:08:49.634Z,73.31
2018-01-08T01:13:51.044Z,72.99
2018-01-08T01:18:52.711Z,73.21
2018-01-08T01:23:54.842Z,73.53
2018-01-08T01:28:56.169Z,72.94
2018-01-08T01:33:57.551Z,73.32
2018-01-08T01:38:58.871Z,72.87
2018-01-08T01:44:00.968Z,72.40
2018-01-08T01:49:20.606Z,72.10
2018-01-08T01:54:22.695Z,71.51
2018-01-08T01:59:24.060Z,71.39
2018-01-08T02:04:25.386Z,71.72
2018-01-08T02:09:26.917Z,72.44
2018-01-08T02:14:29.058Z,72.23
2018-01-08T02:19:30.423Z,72.00
2018-01-08T02:24:31.763Z,72.15
2018-01-08T02:29:33.151Z,72.17
2018-01-08T02:34:34.451Z,72.41
2018-01-08T02:39:36.579Z,72.37
2018-01-08T02:44:38.066Z,72.23
2018-01-08T02:49:40.102Z,72.51
2018-01-08T02:54:41.503Z,72.63
2018-01-08T02:59:42.858Z,72.13
2018-01-08T03:04:44.163Z,72.26
2018-01-08T03:09:45.505Z,72.62
2018-01-08T03:14:46.903Z,72.28
2018-01-08T03:19:48.960Z,72.49
2018-01-08T03:24:50.314Z,72.40
2018-01-08T03:29:52.431Z,72.65
2018-01-08T03:34:53.800Z,72.99
2018-01-08T03:39:55.855Z,72.58
2018-01-08T03:44:57.208Z,72.65
2018-01-08T03:49:59.290Z,72.33
2018-01-08T03:55:00.628Z,72.62
2018-01-08T04:00:01.972Z,72.79
2018-01-08T04:05:03.327Z,73.01
2018-01-08T04:10:04.663Z,72.88
2018-01-08T04:15:06.835Z,72.90
2018-01-08T04:20:08.172Z,72.53
2018-01-08T04:25:10.237Z,72.61
2018-01-08T04:30:11.707Z,72.71
2018-01-08T04:35:13.430Z,72.12
2018-01-08T04:40:14.780Z,72.70
2018-01-08T04:45:16.094Z,72.78
2018-01-08T04:50:17.407Z,73.31
2018-01-08T04:55:18.780Z,73.58
2018-01-08T05:00:20.082Z,74.13
2018-01-08T05:05:21.413Z,73.82
2018-01-08T05:10:23.080Z,73.48
2018-01-08T05:15:25.248Z,73.93
2018-01-08T05:20:26.626Z,73.60
2018-01-08T05:25:27.949Z,73.45
2018-01-08T05:30:29.242Z,73.82
2018-01-08T05:35:30.552Z,73.24
2018-01-08T05:40:31.863Z,73.30
2018-01-08T05:45:33.902Z,73.38
2018-01-08T05:50:35.268Z,73.78
2018-01-08T05:55:36.580Z,74.33
2018-01-08T06:00:37.974Z,74.31
2018-01-08T06:05:39.275Z,74.48
2018-01-08T06:10:40.608Z,74.22
2018-01-08T06:15:42.700Z,73.82
2018-01-08T06:20:44.024Z,74.20
2018-01-08T06:25:45.359Z,73.73
2018-01-08T06:30:46.794Z,74.45
2018-01-08T06:35:48.121Z,74.13
2018-01-08T06:40:49.448Z,74.33
2018-01-08T06:45:50.747Z,74.57
2018-01-08T06:50:52.804Z,74.56
2018-01-08T06:55:54.123Z,74.75
2018-01-08T07:00:55.451Z,74.59
2018-01-08T07:05:56.758Z,74.62
2018-01-08T07:10:58.097Z,74.85
2018-01-08T07:15:59.418Z,74.83
2018-01-08T07:21:00.744Z,74.56
2018-01-08T07:26:02.061Z,75.08
2018-01-08T07:31:03.376Z,75.08
2018-01-08T07:36:04.723Z,74.87
2018-01-08T07:41:06.051Z,74.61
2018-01-08T07:46:07.356Z,74.90
2018-01-08T07:51:08.680Z,74.65
2018-01-08T07:56:10.017Z,74.82
2018-01-08T08:01:12.109Z,74.79
2018-01-08T08:06:13.569Z,74.19
2018-01-08T08:11:14.878Z,74.12
2018-01-08T08:16:16.225Z,73.96
2018-01-08T08:21:17.596Z,73.71
2018-01-08T08:26:18.920Z,73.46
2018-01-08T08:31:20.244Z,73.37
2018-01-08T08:36:21.570Z,73.60
2018-01-08T08:41:22.887Z,73.51
2018-01-08T08:46:24.214Z,73.27
2018-01-08T08:51:26.266Z,73.10
2018-01-08T08:56:27.574Z,73.12
2018-01-08T09:01:28.919Z,72.68
2018-01-08T09:06:30.215Z,72.55
2018-01-08T09:11:31.561Z,72.43
2018-01-08T09:16:32.966Z,72.70
2018-01-08T09:21:34.294Z,72.35
2018-01-08T09:26:35.823Z,71.75
2018-01-08T09:31:37.152Z,71.55
2018-01-08T09:36:39.256Z,71.29
2018-01-08T09:41:41.310Z,70.54
2018-01-08T09:46:43.108Z,70.48
2018-01-08T09:51:44.674Z,69.86
2018-01-08T09:56:46.129Z,69.43
2018-01-08T10:01:47.660Z,68.67
2018-01-08T10:07:07.373Z,68.37
2018-01-08T10:12:27.777Z,67.96
2018-01-08T10:17:47.551Z,68.28
2018-01-08T10:22:48.880Z,67.55
2018-01-08T10:27:50.213Z,67.21
2018-01-08T10:32:51.598Z,65.85
2018-01-08T10:37:53.666Z,64.97
2018-01-08T10:43:01.023Z,64.46
2018-01-08T10:48:09.277Z,63.59
2018-01-08T10:58:55.437Z,62.86
2018-01-08T11:03:59.435Z,62.55
2018-01-08T11:09:01.524Z,61.71
2018-01-08T11:14:02.880Z,60.93
2018-01-08T11:19:04.286Z,60.32
2018-01-08T11:24:05.622Z,59.08
2018-01-08T11:29:07.004Z,58.26
2018-01-08T11:34:08.500Z,57.35
2018-01-08T11:39:10.610Z,56.90
2018-01-08T11:44:12.688Z,55.99
2018-01-08T11:49:14.087Z,55.69
2018-01-08T11:54:15.408Z,54.86
2018-01-08T11:59:16.757Z,54.62
2018-01-08T12:04:18.183Z,54.40
2018-01-08T12:09:19.504Z,52.86
2018-01-08T12:14:20.882Z,51.86
2018-01-08T12:19:22.311Z,51.51
2018-01-08T12:24:24.475Z,50.41
2018-01-08T12:29:26.338Z,50.55
2018-01-08T12:34:27.799Z,49.59
2018-01-08T12:39:29.168Z,49.60
2018-01-08T12:44:30.536Z,49.27
2018-01-08T12:49:32.662Z,48.62
2018-01-08T12:54:34.008Z,49.22
2018-01-08T12:59:35.376Z,48.08
2018-01-08T13:04:36.721Z,47.65
2018-01-08T13:09:38.068Z,47.98
2018-01-08T13:14:39.439Z,48.05
2018-01-08T13:19:40.806Z,47.53
2018-01-08T13:24:42.141Z,47.05
2018-01-08T13:29:43.599Z,46.77
2018-01-08T13:34:44.943Z,46.69
2018-01-08T13:39:47.024Z,46.61
2018-01-08T13:44:48.432Z,46.39
2018-01-08T13:49:49.802Z,46.56
2018-01-08T13:54:51.155Z,46.01
2018-01-08T13:59:52.493Z,46.33
2018-01-08T14:04:53.846Z,46.18
2018-01-08T14:09:55.199Z,46.25
2018-01-08T14:14:57.302Z,46.00
2018-01-08T14:19:59.392Z,45.98
2018-01-08T14:25:00.771Z,46.01
2018-01-08T14:30:02.208Z,46.16
2018-01-08T14:35:03.556Z,46.44
2018-01-08T14:40:05.068Z,46.52
2018-01-08T14:45:07.208Z,46.56
2018-01-08T14:50:08.555Z,46.63
2018-01-08T14:55:11.680Z,46.45
2018-01-08T15:00:13.048Z,46.81
2018-01-08T15:05:14.501Z,46.55
2018-01-08T15:10:15.949Z,46.45
2018-01-08T15:15:17.319Z,46.72
2018-01-08T15:20:20.610Z,46.93
2018-01-08T15:25:23.043Z,46.09
2018-01-08T15:30:24.389Z,46.88
2018-01-08T15:35:25.707Z,46.34
2018-01-08T15:40:27.032Z,46.93
2018-01-08T15:45:28.380Z,46.80
2018-01-08T15:50:30.489Z,47.17
2018-01-08T15:55:32.706Z,46.46
2018-01-08T16:00:34.079Z,46.27
2018-01-08T16:05:36.210Z,45.99
2018-01-08T16:10:37.589Z,46.25
2018-01-08T16:15:39.658Z,46.69
2018-01-08T16:20:40.987Z,46.80
2018-01-08T16:25:43.043Z,46.42
2018-01-08T16:30:44.374Z,46.09
2018-01-08T16:35:46.434Z,46.46
2018-01-08T16:40:47.776Z,46.75
2018-01-08T16:45:49.094Z,46.61
2018-01-08T16:50:50.410Z,46.44
2018-01-08T16:55:51.745Z,46.75
2018-01-08T17:00:53.095Z,46.91
2018-01-08T17:05:54.410Z,47.00
2018-01-08T17:10:56.476Z,47.51
2018-01-08T17:15:58.159Z,47.18
2018-01-08T17:20:59.521Z,46.95
2018-01-08T17:26:01.633Z,47.32
2018-01-08T17:31:03.211Z,47.38
2018-01-08T17:36:04.573Z,47.52
2018-01-08T17:41:05.931Z,47.39
2018-01-08T17:46:07.290Z,48.08
2018-01-08T17:51:08.627Z,48.07
2018-01-08T17:56:09.946Z,48.55
2018-01-08T18:01:11.352Z,48.56
2018-01-08T18:06:13.466Z,48.49
2018-01-08T18:11:15.290Z,48.68
2018-01-08T18:16:16.616Z,48.45
2018-01-08T18:21:17.966Z,48.22
2018-01-08T18:26:19.661Z,48.51
2018-01-08T18:31:21.840Z,48.11
2018-01-08T18:36:23.241Z,48.04
2018-01-08T18:41:24.974Z,47.98
2018-01-08T18:46:27.056Z,47.83
2018-01-08T18:51:28.443Z,47.95
2018-01-08T18:56:30.143Z,47.97
2018-01-08T19:01:32.589Z,47.90
2018-01-08T19:06:34.084Z,48.28
2018-01-08T19:11:37.217Z,48.57
2018-01-08T19:16:40.271Z,48.70
2018-01-08T19:21:41.656Z,48.54
2018-01-08T19:26:43.491Z,48.97
2018-01-08T19:31:46.306Z,49.37
2018-01-08T19:36:47.899Z,49.31
2018-01-08T19:41:50.120Z,49.41
2018-01-08T19:46:51.493Z,49.66
2018-01-08T19:51:53.420Z,50.16
2018-01-08T19:56:55.257Z,50.33
2018-01-08T20:01:56.596Z,50.52
2018-01-08T20:06:57.992Z,50.52
2018-01-08T20:12:00.132Z,51.02
2018-01-08T20:17:01.468Z,51.06
2018-01-08T20:22:02.823Z,51.73
2018-01-08T20:27:04.208Z,51.81
2018-01-08T20:32:05.557Z,51.95
2018-01-08T20:37:06.925Z,52.44
2018-01-08T20:42:08.304Z,52.66
2018-01-08T20:47:10.557Z,52.91
2018-01-08T20:52:12.634Z,52.83
2018-01-08T20:57:13.982Z,53.57
2018-01-08T21:02:15.349Z,53.60
2018-01-08T21:07:17.430Z,54.15
2018-01-08T21:12:18.762Z,54.67
2018-01-08T21:17:20.084Z,55.05
2018-01-08T21:22:21.427Z,55.48
2018-01-08T21:27:23.496Z,56.04
2018-01-08T21:32:24.847Z,56.70
2018-01-08T21:37:26.174Z,56.66
2018-01-08T21:42:27.512Z,56.90
2018-01-08T21:47:28.840Z,57.35
2018-01-08T21:52:30.192Z,58.26
2018-01-08T21:57:31.522Z,58.83
2018-01-08T22:02:32.952Z,59.08
2018-01-08T22:07:34.359Z,58.87
2018-01-08T22:12:35.757Z,59.40
2018-01-08T22:17:37.103Z,59.41
2018-01-08T22:22:38.448Z,59.41
2018-01-08T22:27:39.867Z,58.68
2018-01-08T22:32:41.219Z,59.49
2018-01-08T22:37:42.534Z,59.37
2018-01-08T22:42:43.939Z,59.77
2018-01-08T22:47:45.286Z,59.77
2018-01-08T22:52:46.662Z,60.04
2018-01-08T22:57:48.704Z,59.83
2018-01-08T23:02:50.064Z,60.11
2018-01-08T23:07:51.359Z,60.26
2018-01-08T23:12:52.735Z,60.56
2018-01-08T23:17:54.804Z,60.27
2018-01-08T23:22:56.160Z,60.43
2018-01-08T23:27:57.510Z,60.86
2018-01-08T23:32:58.896Z,60.64
2018-01-08T23:38:00.220Z,60.54
2018-01-08T23:43:01.615Z,60.08
2018-01-08T23:48:02.920Z,60.71
2018-01-08T23:53:04.253Z,60.88
2018-01-08T23:58:05.662Z,61.15
